sensor_id;sensor_type;location;lat;lon;timestamp;P1;durP1;ratioP1;P2;durP2;ratioP2
74471;SDS011;62920;53.572;10.050;2023-07-13T00:00:12;4.95;;;1.60;;
74471;SDS011;62920;53.572;10.050;2023-07-13T00:02:40;7.07;;;1.70;;
74471;SDS011;62920;53.572;10.050;2023-07-13T00:05:06;4.57;;;1.80;;
74471;SDS011;62920;53.572;10.050;2023-07-13T00:07:32;5.05;;;1.85;;
74471;SDS011;62920;53.572;10.050;2023-07-13T00:09:57;5.13;;;2.00;;
74471;SDS011;62920;53.572;10.050;2023-07-13T00:12:34;5.68;;;1.70;;
74471;SDS011;62920;53.572;10.050;2023-07-13T00:15:01;5.80;;;1.98;;
74471;SDS011;62920;53.572;10.050;2023-07-13T00:17:29;8.88;;;1.60;;
74471;SDS011;62920;53.572;10.050;2023-07-13T00:19:55;6.10;;;2.00;;
74471;SDS011;62920;53.572;10.050;2023-07-13T00:22:22;5.32;;;2.15;;
74471;SDS011;62920;53.572;10.050;2023-07-13T00:24:49;5.55;;;1.75;;
74471;SDS011;62920;53.572;10.050;2023-07-13T00:27:14;6.03;;;1.80;;
74471;SDS011;62920;53.572;10.050;2023-07-13T00:29:40;4.93;;;2.40;;
74471;SDS011;62920;53.572;10.050;2023-07-13T00:32:05;8.10;;;2.45;;
74471;SDS011;62920;53.572;10.050;2023-07-13T00:36:57;4.68;;;1.92;;
74471;SDS011;62920;53.572;10.050;2023-07-13T00:39:23;7.18;;;2.55;;
74471;SDS011;62920;53.572;10.050;2023-07-13T00:41:49;6.03;;;2.30;;
74471;SDS011;62920;53.572;10.050;2023-07-13T00:44:15;5.47;;;2.13;;
74471;SDS011;62920;53.572;10.050;2023-07-13T00:46:41;6.90;;;2.10;;
74471;SDS011;62920;53.572;10.050;2023-07-13T00:49:07;7.00;;;2.00;;
74471;SDS011;62920;53.572;10.050;2023-07-13T00:51:35;6.13;;;2.22;;
74471;SDS011;62920;53.572;10.050;2023-07-13T00:54:06;7.35;;;2.30;;
74471;SDS011;62920;53.572;10.050;2023-07-13T00:56:35;6.72;;;2.03;;
74471;SDS011;62920;53.572;10.050;2023-07-13T00:59:02;5.13;;;2.20;;
74471;SDS011;62920;53.572;10.050;2023-07-13T01:01:28;7.07;;;2.45;;
74471;SDS011;62920;53.572;10.050;2023-07-13T01:03:54;10.32;;;2.47;;
74471;SDS011;62920;53.572;10.050;2023-07-13T01:06:19;8.98;;;2.53;;
74471;SDS011;62920;53.572;10.050;2023-07-13T01:08:45;6.07;;;2.03;;
74471;SDS011;62920;53.572;10.050;2023-07-13T01:11:10;5.28;;;2.00;;
74471;SDS011;62920;53.572;10.050;2023-07-13T01:13:35;6.97;;;2.72;;
74471;SDS011;62920;53.572;10.050;2023-07-13T01:16:02;8.98;;;1.90;;
74471;SDS011;62920;53.572;10.050;2023-07-13T01:18:33;6.50;;;1.73;;
74471;SDS011;62920;53.572;10.050;2023-07-13T01:21:01;4.43;;;1.80;;
74471;SDS011;62920;53.572;10.050;2023-07-13T01:23:28;3.80;;;1.92;;
74471;SDS011;62920;53.572;10.050;2023-07-13T01:25:55;5.65;;;1.70;;
74471;SDS011;62920;53.572;10.050;2023-07-13T01:28:21;6.90;;;1.80;;
74471;SDS011;62920;53.572;10.050;2023-07-13T01:30:52;6.55;;;1.73;;
74471;SDS011;62920;53.572;10.050;2023-07-13T01:35:44;4.28;;;1.65;;
74471;SDS011;62920;53.572;10.050;2023-07-13T01:38:10;4.60;;;1.70;;
74471;SDS011;62920;53.572;10.050;2023-07-13T01:43:02;6.80;;;2.08;;
74471;SDS011;62920;53.572;10.050;2023-07-13T01:45:28;5.75;;;2.10;;
74471;SDS011;62920;53.572;10.050;2023-07-13T01:47:53;4.15;;;1.85;;
74471;SDS011;62920;53.572;10.050;2023-07-13T01:50:19;7.65;;;2.13;;
74471;SDS011;62920;53.572;10.050;2023-07-13T01:52:44;6.22;;;2.30;;
74471;SDS011;62920;53.572;10.050;2023-07-13T01:55:10;5.20;;;1.90;;
74471;SDS011;62920;53.572;10.050;2023-07-13T01:57:35;5.53;;;2.17;;
74471;SDS011;62920;53.572;10.050;2023-07-13T02:00:02;5.40;;;2.08;;
74471;SDS011;62920;53.572;10.050;2023-07-13T02:02:30;6.22;;;2.47;;
74471;SDS011;62920;53.572;10.050;2023-07-13T02:04:55;6.57;;;2.10;;
74471;SDS011;62920;53.572;10.050;2023-07-13T02:07:21;6.55;;;2.58;;
74471;SDS011;62920;53.572;10.050;2023-07-13T02:09:46;5.88;;;2.20;;
74471;SDS011;62920;53.572;10.050;2023-07-13T02:12:12;5.88;;;2.65;;
74471;SDS011;62920;53.572;10.050;2023-07-13T02:14:37;6.72;;;2.63;;
74471;SDS011;62920;53.572;10.050;2023-07-13T02:17:03;5.85;;;2.20;;
74471;SDS011;62920;53.572;10.050;2023-07-13T02:19:29;6.25;;;2.33;;
74471;SDS011;62920;53.572;10.050;2023-07-13T02:21:54;4.50;;;2.20;;
74471;SDS011;62920;53.572;10.050;2023-07-13T02:24:20;5.75;;;2.60;;
74471;SDS011;62920;53.572;10.050;2023-07-13T02:26:46;7.50;;;2.80;;
74471;SDS011;62920;53.572;10.050;2023-07-13T02:29:11;5.90;;;2.97;;
74471;SDS011;62920;53.572;10.050;2023-07-13T02:31:37;5.90;;;2.42;;
74471;SDS011;62920;53.572;10.050;2023-07-13T02:34:02;5.55;;;2.85;;
74471;SDS011;62920;53.572;10.050;2023-07-13T02:36:29;9.10;;;2.80;;
74471;SDS011;62920;53.572;10.050;2023-07-13T02:38:54;5.97;;;2.92;;
74471;SDS011;62920;53.572;10.050;2023-07-13T02:41:20;7.88;;;3.60;;
74471;SDS011;62920;53.572;10.050;2023-07-13T02:43:46;8.68;;;3.40;;
74471;SDS011;62920;53.572;10.050;2023-07-13T02:46:11;6.68;;;3.05;;
74471;SDS011;62920;53.572;10.050;2023-07-13T02:48:37;12.82;;;3.35;;
74471;SDS011;62920;53.572;10.050;2023-07-13T02:51:03;6.75;;;3.28;;
74471;SDS011;62920;53.572;10.050;2023-07-13T02:53:29;6.50;;;3.80;;
74471;SDS011;62920;53.572;10.050;2023-07-13T02:55:55;6.28;;;3.05;;
74471;SDS011;62920;53.572;10.050;2023-07-13T02:58:20;6.75;;;2.85;;
74471;SDS011;62920;53.572;10.050;2023-07-13T03:00:46;6.75;;;2.92;;
74471;SDS011;62920;53.572;10.050;2023-07-13T03:03:13;5.93;;;3.05;;
74471;SDS011;62920;53.572;10.050;2023-07-13T03:05:40;6.07;;;2.72;;
74471;SDS011;62920;53.572;10.050;2023-07-13T03:08:07;5.95;;;2.78;;
74471;SDS011;62920;53.572;10.050;2023-07-13T03:10:33;9.55;;;3.45;;
74471;SDS011;62920;53.572;10.050;2023-07-13T03:12:58;5.53;;;3.20;;
74471;SDS011;62920;53.572;10.050;2023-07-13T03:15:24;7.55;;;3.38;;
74471;SDS011;62920;53.572;10.050;2023-07-13T03:17:49;6.75;;;2.80;;
74471;SDS011;62920;53.572;10.050;2023-07-13T03:20:15;6.72;;;3.15;;
74471;SDS011;62920;53.572;10.050;2023-07-13T03:22:44;5.60;;;3.33;;
74471;SDS011;62920;53.572;10.050;2023-07-13T03:25:10;8.13;;;3.13;;
74471;SDS011;62920;53.572;10.050;2023-07-13T03:27:36;9.75;;;3.25;;
74471;SDS011;62920;53.572;10.050;2023-07-13T03:30:02;9.00;;;3.15;;
74471;SDS011;62920;53.572;10.050;2023-07-13T03:32:28;7.70;;;3.20;;
74471;SDS011;62920;53.572;10.050;2023-07-13T03:34:54;10.15;;;3.35;;
74471;SDS011;62920;53.572;10.050;2023-07-13T03:37:20;8.38;;;3.30;;
74471;SDS011;62920;53.572;10.050;2023-07-13T03:39:46;6.07;;;3.03;;
74471;SDS011;62920;53.572;10.050;2023-07-13T03:42:11;7.97;;;3.28;;
74471;SDS011;62920;53.572;10.050;2023-07-13T03:44:37;8.32;;;3.80;;
74471;SDS011;62920;53.572;10.050;2023-07-13T03:47:04;8.00;;;3.40;;
74471;SDS011;62920;53.572;10.050;2023-07-13T03:49:31;5.88;;;3.30;;
74471;SDS011;62920;53.572;10.050;2023-07-13T03:51:56;8.10;;;3.60;;
74471;SDS011;62920;53.572;10.050;2023-07-13T03:54:22;8.90;;;3.83;;
74471;SDS011;62920;53.572;10.050;2023-07-13T03:56:47;6.70;;;3.05;;
74471;SDS011;62920;53.572;10.050;2023-07-13T03:59:12;8.65;;;3.25;;
74471;SDS011;62920;53.572;10.050;2023-07-13T04:01:38;6.05;;;3.33;;
74471;SDS011;62920;53.572;10.050;2023-07-13T04:04:04;7.43;;;2.92;;
74471;SDS011;62920;53.572;10.050;2023-07-13T04:06:30;6.05;;;2.83;;
74471;SDS011;62920;53.572;10.050;2023-07-13T04:08:57;6.50;;;2.65;;
74471;SDS011;62920;53.572;10.050;2023-07-13T04:11:24;6.70;;;2.63;;
74471;SDS011;62920;53.572;10.050;2023-07-13T04:13:50;9.88;;;2.33;;
74471;SDS011;62920;53.572;10.050;2023-07-13T04:16:16;5.97;;;2.40;;
74471;SDS011;62920;53.572;10.050;2023-07-13T04:18:43;7.78;;;2.47;;
74471;SDS011;62920;53.572;10.050;2023-07-13T04:21:09;6.50;;;2.20;;
74471;SDS011;62920;53.572;10.050;2023-07-13T04:23:36;7.68;;;2.10;;
74471;SDS011;62920;53.572;10.050;2023-07-13T04:26:03;9.90;;;2.65;;
74471;SDS011;62920;53.572;10.050;2023-07-13T04:28:29;4.90;;;1.92;;
74471;SDS011;62920;53.572;10.050;2023-07-13T04:30:54;5.47;;;1.98;;
74471;SDS011;62920;53.572;10.050;2023-07-13T04:33:20;6.32;;;2.00;;
74471;SDS011;62920;53.572;10.050;2023-07-13T04:35:49;6.60;;;2.30;;
74471;SDS011;62920;53.572;10.050;2023-07-13T04:38:21;6.45;;;2.00;;
74471;SDS011;62920;53.572;10.050;2023-07-13T04:40:50;8.57;;;2.60;;
74471;SDS011;62920;53.572;10.050;2023-07-13T04:43:16;7.35;;;2.30;;
74471;SDS011;62920;53.572;10.050;2023-07-13T04:45:41;5.80;;;2.35;;
74471;SDS011;62920;53.572;10.050;2023-07-13T04:48:07;4.72;;;2.13;;
74471;SDS011;62920;53.572;10.050;2023-07-13T04:50:32;6.78;;;2.35;;
74471;SDS011;62920;53.572;10.050;2023-07-13T04:52:58;10.30;;;2.55;;
74471;SDS011;62920;53.572;10.050;2023-07-13T04:55:24;5.38;;;2.00;;
74471;SDS011;62920;53.572;10.050;2023-07-13T04:57:49;6.75;;;2.00;;
74471;SDS011;62920;53.572;10.050;2023-07-13T05:00:15;11.98;;;2.50;;
74471;SDS011;62920;53.572;10.050;2023-07-13T05:02:41;9.25;;;1.83;;
74471;SDS011;62920;53.572;10.050;2023-07-13T05:05:08;7.88;;;2.20;;
74471;SDS011;62920;53.572;10.050;2023-07-13T05:07:34;7.35;;;2.20;;
74471;SDS011;62920;53.572;10.050;2023-07-13T05:09:59;8.55;;;2.92;;
74471;SDS011;62920;53.572;10.050;2023-07-13T05:12:25;6.72;;;2.08;;
74471;SDS011;62920;53.572;10.050;2023-07-13T05:17:16;7.70;;;2.25;;
74471;SDS011;62920;53.572;10.050;2023-07-13T05:19:42;10.05;;;2.10;;
74471;SDS011;62920;53.572;10.050;2023-07-13T05:22:08;9.00;;;2.30;;
74471;SDS011;62920;53.572;10.050;2023-07-13T05:24:33;7.45;;;2.40;;
74471;SDS011;62920;53.572;10.050;2023-07-13T05:26:59;11.10;;;2.20;;
74471;SDS011;62920;53.572;10.050;2023-07-13T05:29:24;8.00;;;2.03;;
74471;SDS011;62920;53.572;10.050;2023-07-13T05:31:50;7.70;;;1.95;;
74471;SDS011;62920;53.572;10.050;2023-07-13T05:34:15;8.25;;;2.00;;
74471;SDS011;62920;53.572;10.050;2023-07-13T05:36:41;9.80;;;2.80;;
74471;SDS011;62920;53.572;10.050;2023-07-13T05:39:07;8.07;;;2.53;;
74471;SDS011;62920;53.572;10.050;2023-07-13T05:41:33;7.40;;;2.55;;
74471;SDS011;62920;53.572;10.050;2023-07-13T05:43:58;11.20;;;3.10;;
74471;SDS011;62920;53.572;10.050;2023-07-13T05:46:24;8.88;;;2.47;;
74471;SDS011;62920;53.572;10.050;2023-07-13T05:48:49;13.02;;;2.67;;
74471;SDS011;62920;53.572;10.050;2023-07-13T05:51:15;11.68;;;2.60;;
74471;SDS011;62920;53.572;10.050;2023-07-13T05:53:40;11.38;;;2.67;;
74471;SDS011;62920;53.572;10.050;2023-07-13T05:56:06;10.55;;;2.53;;
74471;SDS011;62920;53.572;10.050;2023-07-13T05:58:31;10.57;;;2.50;;
74471;SDS011;62920;53.572;10.050;2023-07-13T06:01:01;10.30;;;2.45;;
74471;SDS011;62920;53.572;10.050;2023-07-13T06:03:29;7.43;;;2.38;;
74471;SDS011;62920;53.572;10.050;2023-07-13T06:05:54;10.80;;;2.63;;
74471;SDS011;62920;53.572;10.050;2023-07-13T06:08:20;10.82;;;2.50;;
74471;SDS011;62920;53.572;10.050;2023-07-13T06:10:45;11.32;;;2.50;;
74471;SDS011;62920;53.572;10.050;2023-07-13T06:13:10;7.78;;;2.40;;
74471;SDS011;62920;53.572;10.050;2023-07-13T06:15:36;10.25;;;2.35;;
74471;SDS011;62920;53.572;10.050;2023-07-13T06:18:01;10.13;;;2.60;;
74471;SDS011;62920;53.572;10.050;2023-07-13T06:20:28;8.85;;;2.40;;
74471;SDS011;62920;53.572;10.050;2023-07-13T06:22:54;15.32;;;2.30;;
74471;SDS011;62920;53.572;10.050;2023-07-13T06:25:19;14.90;;;2.75;;
74471;SDS011;62920;53.572;10.050;2023-07-13T06:27:45;9.70;;;2.33;;
74471;SDS011;62920;53.572;10.050;2023-07-13T06:30:10;7.88;;;2.00;;
74471;SDS011;62920;53.572;10.050;2023-07-13T06:32:36;9.10;;;2.47;;
74471;SDS011;62920;53.572;10.050;2023-07-13T06:35:02;6.78;;;2.60;;
74471;SDS011;62920;53.572;10.050;2023-07-13T06:37:27;10.20;;;2.40;;
74471;SDS011;62920;53.572;10.050;2023-07-13T06:39:53;9.05;;;2.45;;
74471;SDS011;62920;53.572;10.050;2023-07-13T06:42:18;11.25;;;2.50;;
74471;SDS011;62920;53.572;10.050;2023-07-13T06:44:43;9.07;;;2.47;;
74471;SDS011;62920;53.572;10.050;2023-07-13T06:47:09;10.45;;;2.45;;
74471;SDS011;62920;53.572;10.050;2023-07-13T06:49:34;11.93;;;2.60;;
74471;SDS011;62920;53.572;10.050;2023-07-13T06:52:00;10.70;;;2.60;;
74471;SDS011;62920;53.572;10.050;2023-07-13T06:54:25;13.57;;;2.60;;
74471;SDS011;62920;53.572;10.050;2023-07-13T06:56:51;8.90;;;2.10;;
74471;SDS011;62920;53.572;10.050;2023-07-13T06:59:16;11.45;;;2.00;;
74471;SDS011;62920;53.572;10.050;2023-07-13T07:01:41;8.32;;;2.13;;
74471;SDS011;62920;53.572;10.050;2023-07-13T07:04:07;8.85;;;2.47;;
74471;SDS011;62920;53.572;10.050;2023-07-13T07:06:32;12.25;;;2.97;;
74471;SDS011;62920;53.572;10.050;2023-07-13T07:08:58;11.95;;;2.50;;
74471;SDS011;62920;53.572;10.050;2023-07-13T07:11:24;10.07;;;2.20;;
74471;SDS011;62920;53.572;10.050;2023-07-13T07:13:51;8.02;;;2.22;;
74471;SDS011;62920;53.572;10.050;2023-07-13T07:16:17;10.40;;;2.30;;
74471;SDS011;62920;53.572;10.050;2023-07-13T07:18:43;10.35;;;2.22;;
74471;SDS011;62920;53.572;10.050;2023-07-13T07:21:10;7.65;;;2.05;;
74471;SDS011;62920;53.572;10.050;2023-07-13T07:23:35;12.45;;;2.30;;
74471;SDS011;62920;53.572;10.050;2023-07-13T07:26:01;8.15;;;2.50;;
74471;SDS011;62920;53.572;10.050;2023-07-13T07:28:27;11.68;;;2.70;;
74471;SDS011;62920;53.572;10.050;2023-07-13T07:33:20;10.27;;;2.20;;
74471;SDS011;62920;53.572;10.050;2023-07-13T07:35:45;6.95;;;1.90;;
74471;SDS011;62920;53.572;10.050;2023-07-13T07:38:11;12.10;;;2.17;;
74471;SDS011;62920;53.572;10.050;2023-07-13T07:40:37;10.02;;;2.28;;
74471;SDS011;62920;53.572;10.050;2023-07-13T07:43:03;9.90;;;1.80;;
74471;SDS011;62920;53.572;10.050;2023-07-13T07:45:28;9.13;;;2.20;;
74471;SDS011;62920;53.572;10.050;2023-07-13T07:47:54;9.00;;;2.35;;
74471;SDS011;62920;53.572;10.050;2023-07-13T07:50:23;5.10;;;2.00;;
74471;SDS011;62920;53.572;10.050;2023-07-13T07:52:49;14.27;;;2.00;;
74471;SDS011;62920;53.572;10.050;2023-07-13T07:55:14;7.97;;;2.05;;
74471;SDS011;62920;53.572;10.050;2023-07-13T07:57:40;11.27;;;2.10;;
74471;SDS011;62920;53.572;10.050;2023-07-13T08:00:05;9.52;;;2.22;;
74471;SDS011;62920;53.572;10.050;2023-07-13T08:02:31;9.43;;;2.03;;
74471;SDS011;62920;53.572;10.050;2023-07-13T08:04:57;9.88;;;2.10;;
74471;SDS011;62920;53.572;10.050;2023-07-13T08:07:22;8.50;;;2.22;;
74471;SDS011;62920;53.572;10.050;2023-07-13T08:09:48;9.95;;;2.13;;
74471;SDS011;62920;53.572;10.050;2023-07-13T08:12:17;10.52;;;2.05;;
74471;SDS011;62920;53.572;10.050;2023-07-13T08:14:42;7.15;;;1.73;;
74471;SDS011;62920;53.572;10.050;2023-07-13T08:17:08;9.18;;;2.10;;
74471;SDS011;62920;53.572;10.050;2023-07-13T08:19:33;7.82;;;2.00;;
74471;SDS011;62920;53.572;10.050;2023-07-13T08:21:58;7.40;;;2.28;;
74471;SDS011;62920;53.572;10.050;2023-07-13T08:24:24;10.05;;;2.33;;
74471;SDS011;62920;53.572;10.050;2023-07-13T08:26:50;8.98;;;2.08;;
74471;SDS011;62920;53.572;10.050;2023-07-13T08:29:16;10.05;;;2.05;;
74471;SDS011;62920;53.572;10.050;2023-07-13T08:31:41;8.60;;;2.00;;
74471;SDS011;62920;53.572;10.050;2023-07-13T08:34:06;7.68;;;1.63;;
74471;SDS011;62920;53.572;10.050;2023-07-13T08:36:32;9.98;;;1.83;;
74471;SDS011;62920;53.572;10.050;2023-07-13T08:38:58;8.82;;;1.88;;
74471;SDS011;62920;53.572;10.050;2023-07-13T08:41:23;7.75;;;1.77;;
74471;SDS011;62920;53.572;10.050;2023-07-13T08:43:50;9.40;;;2.15;;
74471;SDS011;62920;53.572;10.050;2023-07-13T08:46:28;10.60;;;2.42;;
74471;SDS011;62920;53.572;10.050;2023-07-13T08:49:01;12.13;;;2.22;;
74471;SDS011;62920;53.572;10.050;2023-07-13T08:51:44;9.63;;;2.40;;
74471;SDS011;62920;53.572;10.050;2023-07-13T08:54:36;9.65;;;2.72;;
74471;SDS011;62920;53.572;10.050;2023-07-13T08:57:09;11.50;;;2.13;;
74471;SDS011;62920;53.572;10.050;2023-07-13T08:59:38;7.40;;;2.00;;
74471;SDS011;62920;53.572;10.050;2023-07-13T09:05:12;5.40;;;2.20;;
74471;SDS011;62920;53.572;10.050;2023-07-13T09:07:44;6.70;;;1.75;;
74471;SDS011;62920;53.572;10.050;2023-07-13T09:10:28;6.55;;;1.83;;
74471;SDS011;62920;53.572;10.050;2023-07-13T09:13:05;7.35;;;1.67;;
74471;SDS011;62920;53.572;10.050;2023-07-13T09:15:40;7.18;;;1.73;;
74471;SDS011;62920;53.572;10.050;2023-07-13T09:20:39;9.13;;;2.47;;
74471;SDS011;62920;53.572;10.050;2023-07-13T09:23:27;6.75;;;2.05;;
74471;SDS011;62920;53.572;10.050;2023-07-13T09:25:58;8.30;;;1.92;;
74471;SDS011;62920;53.572;10.050;2023-07-13T09:28:28;6.72;;;1.90;;
74471;SDS011;62920;53.572;10.050;2023-07-13T09:33:37;8.23;;;1.70;;
74471;SDS011;62920;53.572;10.050;2023-07-13T09:36:14;7.80;;;1.58;;
74471;SDS011;62920;53.572;10.050;2023-07-13T09:38:44;5.55;;;1.63;;
74471;SDS011;62920;53.572;10.050;2023-07-13T09:44:39;6.25;;;1.60;;
74471;SDS011;62920;53.572;10.050;2023-07-13T09:47:17;6.70;;;1.25;;
74471;SDS011;62920;53.572;10.050;2023-07-13T09:49:44;5.70;;;1.50;;
74471;SDS011;62920;53.572;10.050;2023-07-13T09:52:11;5.63;;;1.42;;
74471;SDS011;62920;53.572;10.050;2023-07-13T09:54:39;7.07;;;1.83;;
74471;SDS011;62920;53.572;10.050;2023-07-13T09:57:12;6.50;;;1.60;;
74471;SDS011;62920;53.572;10.050;2023-07-13T09:59:41;4.63;;;1.27;;
74471;SDS011;62920;53.572;10.050;2023-07-13T10:07:35;7.78;;;2.00;;
74471;SDS011;62920;53.572;10.050;2023-07-13T10:10:12;6.57;;;1.60;;
74471;SDS011;62920;53.572;10.050;2023-07-13T10:12:46;7.00;;;1.63;;
74471;SDS011;62920;53.572;10.050;2023-07-13T10:15:19;7.53;;;1.77;;
74471;SDS011;62920;53.572;10.050;2023-07-13T10:17:46;6.68;;;1.70;;
74471;SDS011;62920;53.572;10.050;2023-07-13T10:20:12;6.97;;;1.70;;
74471;SDS011;62920;53.572;10.050;2023-07-13T10:25:17;5.55;;;1.45;;
74471;SDS011;62920;53.572;10.050;2023-07-13T10:27:44;7.13;;;1.92;;
74471;SDS011;62920;53.572;10.050;2023-07-13T10:35:08;6.27;;;1.50;;
74471;SDS011;62920;53.572;10.050;2023-07-13T10:37:41;6.05;;;1.63;;
74471;SDS011;62920;53.572;10.050;2023-07-13T10:40:38;6.15;;;1.42;;
74471;SDS011;62920;53.572;10.050;2023-07-13T10:43:29;5.90;;;1.85;;
74471;SDS011;62920;53.572;10.050;2023-07-13T10:46:03;5.13;;;1.65;;
74471;SDS011;62920;53.572;10.050;2023-07-13T10:48:30;5.63;;;1.50;;
74471;SDS011;62920;53.572;10.050;2023-07-13T10:50:59;5.28;;;1.45;;
74471;SDS011;62920;53.572;10.050;2023-07-13T10:53:33;5.32;;;1.30;;
74471;SDS011;62920;53.572;10.050;2023-07-13T10:56:01;5.00;;;1.40;;
74471;SDS011;62920;53.572;10.050;2023-07-13T10:58:37;5.43;;;1.25;;
74471;SDS011;62920;53.572;10.050;2023-07-13T11:21:26;3.95;;;1.20;;
74471;SDS011;62920;53.572;10.050;2023-07-13T11:26:40;8.57;;;1.35;;
74471;SDS011;62920;53.572;10.050;2023-07-13T11:31:40;6.50;;;1.48;;
74471;SDS011;62920;53.572;10.050;2023-07-13T11:34:10;5.72;;;1.55;;
74471;SDS011;62920;53.572;10.050;2023-07-13T11:36:38;7.35;;;1.10;;
74471;SDS011;62920;53.572;10.050;2023-07-13T11:42:00;4.75;;;1.10;;
74471;SDS011;62920;53.572;10.050;2023-07-13T11:44:29;5.57;;;1.45;;
74471;SDS011;62920;53.572;10.050;2023-07-13T11:46:56;4.47;;;1.10;;
74471;SDS011;62920;53.572;10.050;2023-07-13T11:49:29;4.25;;;1.30;;
74471;SDS011;62920;53.572;10.050;2023-07-13T11:51:56;6.05;;;1.20;;
74471;SDS011;62920;53.572;10.050;2023-07-13T11:54:27;4.00;;;1.10;;
74471;SDS011;62920;53.572;10.050;2023-07-13T11:57:06;5.50;;;1.20;;
74471;SDS011;62920;53.572;10.050;2023-07-13T11:59:42;5.90;;;1.45;;
74471;SDS011;62920;53.572;10.050;2023-07-13T12:02:13;8.77;;;1.30;;
74471;SDS011;62920;53.572;10.050;2023-07-13T12:04:42;4.13;;;1.23;;
74471;SDS011;62920;53.572;10.050;2023-07-13T12:07:11;7.80;;;1.45;;
74471;SDS011;62920;53.572;10.050;2023-07-13T12:09:40;4.30;;;1.40;;
74471;SDS011;62920;53.572;10.050;2023-07-13T12:12:28;4.85;;;1.45;;
74471;SDS011;62920;53.572;10.050;2023-07-13T12:14:53;6.95;;;1.60;;
74471;SDS011;62920;53.572;10.050;2023-07-13T12:17:22;6.40;;;1.50;;
74471;SDS011;62920;53.572;10.050;2023-07-13T12:19:48;4.30;;;1.42;;
74471;SDS011;62920;53.572;10.050;2023-07-13T12:22:16;4.68;;;1.30;;
74471;SDS011;62920;53.572;10.050;2023-07-13T12:24:42;7.43;;;1.70;;
74471;SDS011;62920;53.572;10.050;2023-07-13T12:27:42;9.48;;;1.42;;
74471;SDS011;62920;53.572;10.050;2023-07-13T12:30:02;4.97;;;1.20;;
74471;SDS011;62920;53.572;10.050;2023-07-13T12:32:30;6.70;;;1.30;;
74471;SDS011;62920;53.572;10.050;2023-07-13T12:34:56;5.78;;;1.50;;
74471;SDS011;62920;53.572;10.050;2023-07-13T12:37:29;5.18;;;1.27;;
74471;SDS011;62920;53.572;10.050;2023-07-13T12:39:56;6.05;;;1.35;;
74471;SDS011;62920;53.572;10.050;2023-07-13T12:44:54;4.45;;;1.65;;
74471;SDS011;62920;53.572;10.050;2023-07-13T12:47:29;4.72;;;1.17;;
74471;SDS011;62920;53.572;10.050;2023-07-13T12:55:03;8.25;;;1.50;;
74471;SDS011;62920;53.572;10.050;2023-07-13T12:57:38;4.93;;;1.48;;
74471;SDS011;62920;53.572;10.050;2023-07-13T13:00:06;6.00;;;1.42;;
74471;SDS011;62920;53.572;10.050;2023-07-13T13:02:45;4.13;;;1.55;;
74471;SDS011;62920;53.572;10.050;2023-07-13T13:05:12;4.47;;;1.25;;
74471;SDS011;62920;53.572;10.050;2023-07-13T13:07:39;4.18;;;1.48;;
74471;SDS011;62920;53.572;10.050;2023-07-13T13:10:10;4.43;;;1.48;;
74471;SDS011;62920;53.572;10.050;2023-07-13T13:12:37;5.38;;;1.52;;
74471;SDS011;62920;53.572;10.050;2023-07-13T13:15:02;5.85;;;1.35;;
74471;SDS011;62920;53.572;10.050;2023-07-13T13:17:32;3.47;;;1.17;;
74471;SDS011;62920;53.572;10.050;2023-07-13T13:19:57;4.20;;;1.40;;
74471;SDS011;62920;53.572;10.050;2023-07-13T13:22:23;4.03;;;1.10;;
74471;SDS011;62920;53.572;10.050;2023-07-13T13:24:49;7.88;;;1.25;;
74471;SDS011;62920;53.572;10.050;2023-07-13T13:27:15;3.75;;;1.10;;
74471;SDS011;62920;53.572;10.050;2023-07-13T13:29:45;3.10;;;1.10;;
74471;SDS011;62920;53.572;10.050;2023-07-13T13:32:14;4.00;;;1.27;;
74471;SDS011;62920;53.572;10.050;2023-07-13T13:34:40;5.38;;;1.35;;
74471;SDS011;62920;53.572;10.050;2023-07-13T13:37:21;3.03;;;1.25;;
74471;SDS011;62920;53.572;10.050;2023-07-13T13:39:48;3.45;;;1.30;;
74471;SDS011;62920;53.572;10.050;2023-07-13T13:42:14;4.55;;;1.50;;
74471;SDS011;62920;53.572;10.050;2023-07-13T13:44:39;3.15;;;1.30;;
74471;SDS011;62920;53.572;10.050;2023-07-13T13:47:29;5.10;;;1.30;;
74471;SDS011;62920;53.572;10.050;2023-07-13T13:49:55;4.65;;;1.45;;
74471;SDS011;62920;53.572;10.050;2023-07-13T13:52:20;3.55;;;1.30;;
74471;SDS011;62920;53.572;10.050;2023-07-13T13:54:45;5.88;;;1.67;;
74471;SDS011;62920;53.572;10.050;2023-07-13T13:57:11;5.90;;;1.60;;
74471;SDS011;62920;53.572;10.050;2023-07-13T13:59:37;3.78;;;1.30;;
74471;SDS011;62920;53.572;10.050;2023-07-13T14:02:09;4.50;;;1.33;;
74471;SDS011;62920;53.572;10.050;2023-07-13T14:04:47;3.28;;;1.48;;
74471;SDS011;62920;53.572;10.050;2023-07-13T14:07:15;4.10;;;1.40;;
74471;SDS011;62920;53.572;10.050;2023-07-13T14:09:40;2.60;;;1.10;;
74471;SDS011;62920;53.572;10.050;2023-07-13T14:12:08;6.63;;;1.30;;
74471;SDS011;62920;53.572;10.050;2023-07-13T14:14:37;4.28;;;1.50;;
74471;SDS011;62920;53.572;10.050;2023-07-13T14:17:02;6.25;;;1.30;;
74471;SDS011;62920;53.572;10.050;2023-07-13T14:21:54;4.03;;;1.23;;
74471;SDS011;62920;53.572;10.050;2023-07-13T14:24:19;4.68;;;1.35;;
74471;SDS011;62920;53.572;10.050;2023-07-13T14:26:46;4.10;;;1.58;;
74471;SDS011;62920;53.572;10.050;2023-07-13T14:29:13;5.32;;;2.30;;
74471;SDS011;62920;53.572;10.050;2023-07-13T14:31:40;5.13;;;1.65;;
74471;SDS011;62920;53.572;10.050;2023-07-13T14:34:07;3.70;;;1.60;;
74471;SDS011;62920;53.572;10.050;2023-07-13T14:36:34;7.07;;;1.35;;
74471;SDS011;62920;53.572;10.050;2023-07-13T14:41:37;3.85;;;1.50;;
74471;SDS011;62920;53.572;10.050;2023-07-13T14:44:08;2.75;;;1.30;;
74471;SDS011;62920;53.572;10.050;2023-07-13T14:46:46;4.05;;;1.27;;
74471;SDS011;62920;53.572;10.050;2023-07-13T14:51:40;5.30;;;1.45;;
74471;SDS011;62920;53.572;10.050;2023-07-13T14:54:05;4.80;;;1.50;;
74471;SDS011;62920;53.572;10.050;2023-07-13T14:56:33;5.05;;;1.65;;
74471;SDS011;62920;53.572;10.050;2023-07-13T14:58:59;3.30;;;1.40;;
74471;SDS011;62920;53.572;10.050;2023-07-13T15:01:28;3.78;;;1.45;;
74471;SDS011;62920;53.572;10.050;2023-07-13T15:03:55;4.63;;;1.60;;
74471;SDS011;62920;53.572;10.050;2023-07-13T15:06:21;5.50;;;1.48;;
74471;SDS011;62920;53.572;10.050;2023-07-13T15:08:46;5.05;;;1.70;;
74471;SDS011;62920;53.572;10.050;2023-07-13T15:11:13;3.78;;;1.38;;
74471;SDS011;62920;53.572;10.050;2023-07-13T15:13:39;5.47;;;1.70;;
74471;SDS011;62920;53.572;10.050;2023-07-13T15:16:10;3.75;;;1.50;;
74471;SDS011;62920;53.572;10.050;2023-07-13T15:18:42;5.18;;;1.42;;
74471;SDS011;62920;53.572;10.050;2023-07-13T15:21:08;22.17;;;2.97;;
74471;SDS011;62920;53.572;10.050;2023-07-13T15:23:35;4.78;;;1.27;;
74471;SDS011;62920;53.572;10.050;2023-07-13T15:26:00;4.38;;;1.60;;
74471;SDS011;62920;53.572;10.050;2023-07-13T15:28:26;3.75;;;1.60;;
74471;SDS011;62920;53.572;10.050;2023-07-13T15:30:52;3.75;;;1.38;;
74471;SDS011;62920;53.572;10.050;2023-07-13T15:33:25;4.90;;;1.73;;
74471;SDS011;62920;53.572;10.050;2023-07-13T15:35:53;4.72;;;1.55;;
74471;SDS011;62920;53.572;10.050;2023-07-13T15:38:27;4.45;;;1.73;;
74471;SDS011;62920;53.572;10.050;2023-07-13T15:40:56;5.05;;;1.50;;
74471;SDS011;62920;53.572;10.050;2023-07-13T15:43:22;3.33;;;1.40;;
74471;SDS011;62920;53.572;10.050;2023-07-13T15:45:48;5.65;;;1.70;;
74471;SDS011;62920;53.572;10.050;2023-07-13T15:50:42;4.07;;;1.20;;
74471;SDS011;62920;53.572;10.050;2023-07-13T15:53:21;2.70;;;1.30;;
74471;SDS011;62920;53.572;10.050;2023-07-13T15:55:51;4.97;;;1.33;;
74471;SDS011;62920;53.572;10.050;2023-07-13T15:58:17;6.68;;;1.63;;